Terminal Aerodrome Forecast
Issued by NWS

Home | Current Version | Previous Version | Text Only | Print | Product List | Glossary On
Versions: 1 2 3 4 5 6 7 8 9 10 11 12 13 14 15 16 17 18 19 20 21
000
FTUS43 KLSX 260200 AAA
TAFUIN
TAF AMD
KUIN 260229Z 2602/2624 13006KT P6SM SCT070 SCT250
      TEMPO 2603/2606 BKN060
     FM261400 23010KT P6SM FEW120 BKN250=

USA.gov is the U.S. government's official web portal to all federal, state and local government web resources and services.